VATSIM kuvia tänne

<< < (145/322) > >>

pulakutka:
EFHA 132220Z AUTO 00000KT 0300 FZFG SCT001 M03/M03 Q1023

"Tuuli tyyntä, näkyvyys 300 metriä. Jäätävää sumua..." Näihin oloihin ei Cessnalla mitään asiaa. VFR-harjoituksesta oli tulla painajainen. ILS-lähestyminen Hallin kiitotielle 26 kelin mentyä totaalisen tukkoon.

Valot tulivat näkyviin vasta keskimerkin alettua piipittää.

[ attachment removed ]


[ attachment removed ]

Stumppi:
Nousussa Vaasasta. Tyypillisesti, kaatui taas Helsingissä. 

[ attachment removed ]

tumpelo:
Auringonlasku jossain Ranskan yläpuolella. Oltiin välillä EFHK-LEMD oltu jo hyvän matkaa.

[ attachment removed ]

Stumppi:
Ensimmäisen lomapäivän kunniaksi täräytin aamulla LSGG-LIRG-LSGG


Crossing the Alps
[ attachment removed ]

Laskussa aurinkoiseen Roomaan. Rullauksen aikana saimme jopa vettä hitusen niskaan.
[ attachment removed ]

Keppimaakari egoilee 
[ attachment removed ]

Kohti Genevaa kaarrellaan...
[ attachment removed ]

Stumppi:
Tuohan on hyvä keli, kun vertaa tähän. Parikymmentä jalkaa ennen minimeitä saatiin valot näkyvin. EFHK-EFRO siis kyseessä.


[ Attachment not found - or removed ]

Navigation

Up one level

Next page

Previous page